Time;durP1;ratioP1;P1;durP2;ratioP2;P2;SDS_P1;SDS_P2;PMS_P1;PMS_P2;Temp;Humidity;BMP_temperature;BMP_pressure;BME280_temperature;BME280_humidity;BME280_pressure;Samples;Min_cycle;Max_cycle;Signal;HPM_P1;HPM_P2
2020/12/16 00:01:56;;;;;;;25.47;16.83;;;8.60;99.90;;;;;;4882829;29;20180;-93
2020/12/16 00:04:22;;;;;;;26.53;17.37;;;8.60;99.90;;;;;;4883136;29;20198;-92
2020/12/16 00:06:48;;;;;;;24.57;15.57;;;8.60;99.90;;;;;;4899761;29;20316;-91
2020/12/16 00:09:18;;;;;;;30.53;18.17;;;8.50;99.90;;;;;;4883019;29;20650;-91
2020/12/16 00:11:43;;;;;;;27.97;17.30;;;8.60;99.90;;;;;;4899838;29;20186;-92
2020/12/16 00:14:09;;;;;;;26.23;17.93;;;8.60;99.90;;;;;;4871657;29;20282;-91
2020/12/16 00:16:35;;;;;;;25.17;17.20;;;8.60;99.90;;;;;;4864585;29;20188;-91
2020/12/16 00:19:03;;;;;;;25.03;16.83;;;8.50;99.90;;;;;;4864197;29;20607;-93
2020/12/16 00:21:29;;;;;;;24.37;16.47;;;8.50;99.90;;;;;;4881124;29;20691;-91
2020/12/16 00:23:54;;;;;;;24.23;16.93;;;8.50;99.90;;;;;;4865614;29;20234;-91
2020/12/16 00:26:20;;;;;;;23.97;15.57;;;8.50;99.90;;;;;;4867639;29;20195;-91
2020/12/16 00:28:46;;;;;;;21.03;15.07;;;8.50;99.90;;;;;;4884265;29;20212;-91
2020/12/16 00:31:13;;;;;;;19.93;15.17;;;8.40;99.90;;;;;;4867532;29;20191;-91
2020/12/16 00:33:38;;;;;;;19.77;14.40;;;8.40;99.90;;;;;;4867429;29;20529;-92
2020/12/16 00:36:04;;;;;;;21.20;14.73;;;8.40;99.90;;;;;;4867226;29;20195;-92
2020/12/16 00:38:30;;;;;;;19.87;14.13;;;8.40;99.90;;;;;;4883945;29;20592;-92
2020/12/16 00:40:56;;;;;;;19.63;14.37;;;8.40;99.90;;;;;;4866808;29;20227;-92
2020/12/16 00:43:21;;;;;;;21.03;15.10;;;8.30;99.90;;;;;;4872187;29;20195;-93
2020/12/16 00:45:47;;;;;;;21.30;14.50;;;8.30;99.90;;;;;;4886063;29;20612;-92
2020/12/16 00:48:13;;;;;;;19.90;15.23;;;8.30;99.90;;;;;;4885642;29;20235;-92
2020/12/16 00:50:49;;;;;;;20.43;14.77;;;8.30;99.90;;;;;;4885910;29;20223;-92
2020/12/16 00:53:15;;;;;;;24.07;14.83;;;8.30;99.90;;;;;;4902702;29;20182;-92
2020/12/16 00:55:41;;;;;;;20.17;14.47;;;8.30;99.90;;;;;;4902533;29;20183;-91
2020/12/16 01:00:42;;;;;;;18.13;14.67;;;8.30;99.90;;;;;;5083427;23;20229;-94
2020/12/16 01:03:08;;;;;;;19.77;15.13;;;8.20;99.90;;;;;;4958994;23;20238;-95
2020/12/16 01:05:34;;;;;;;19.90;15.20;;;8.20;99.90;;;;;;4927273;29;20175;-90
2020/12/16 01:08:23;;;;;;;18.43;14.40;;;8.30;99.90;;;;;;4942778;28;20223;-93
2020/12/16 01:11:04;;;;;;;18.33;14.40;;;8.30;99.90;;;;;;4927752;28;20181;-90
2020/12/16 01:13:33;;;;;;;19.93;14.27;;;8.20;99.90;;;;;;4943997;28;20216;-90
2020/12/16 01:16:13;;;;;;;18.70;14.47;;;8.30;99.90;;;;;;4927234;29;20198;-90
2020/12/16 01:18:38;;;;;;;20.10;15.10;;;8.30;99.90;;;;;;4920074;29;20175;-96
2020/12/16 01:21:28;;;;;;;21.57;15.20;;;8.30;99.90;;;;;;4918811;29;20199;-91
2020/12/16 01:23:58;;;;;;;19.20;14.20;;;8.30;99.90;;;;;;4925921;29;20194;-93
2020/12/16 01:26:26;;;;;;;19.80;15.23;;;8.30;99.90;;;;;;4941909;29;20194;-91
2020/12/16 01:28:52;;;;;;;18.17;14.17;;;8.30;99.90;;;;;;4925070;29;20190;-96
2020/12/16 01:34:27;;;;;;;21.93;14.80;;;8.30;99.90;;;;;;4941716;28;20191;-91
2020/12/16 01:36:53;;;;;;;19.13;14.53;;;8.20;99.90;;;;;;4926899;29;20190;-91
2020/12/16 01:39:24;;;;;;;21.13;14.77;;;8.30;99.90;;;;;;4943720;28;20224;-90
2020/12/16 01:42:33;;;;;;;19.93;14.50;;;8.20;99.90;;;;;;4927240;29;20175;-90
2020/12/16 01:45:09;;;;;;;21.50;15.77;;;8.20;99.90;;;;;;4926970;29;20201;-90
2020/12/16 01:47:35;;;;;;;23.57;15.53;;;8.20;99.90;;;;;;4926816;29;20185;-90
2020/12/16 01:50:01;;;;;;;21.40;15.60;;;8.20;99.90;;;;;;4911055;29;20206;-89
2020/12/16 01:52:28;;;;;;;18.63;14.30;;;8.20;99.90;;;;;;4934308;23;20218;-89
2020/12/16 01:54:58;;;;;;;24.80;15.43;;;8.20;99.90;;;;;;4942554;29;20178;-90
2020/12/16 01:57:28;;;;;;;25.40;16.93;;;8.20;99.90;;;;;;4926612;29;20187;-89
2020/12/16 01:59:55;;;;;;;21.77;16.73;;;8.20;99.90;;;;;;4942890;29;20182;-90
2020/12/16 02:03:00;;;;;;;22.60;16.47;;;8.20;99.90;;;;;;4926144;29;20238;-90
2020/12/16 02:05:26;;;;;;;23.00;16.57;;;8.20;99.90;;;;;;4941994;29;20155;-96
2020/12/16 02:07:55;;;;;;;28.60;16.57;;;8.20;99.90;;;;;;4918875;29;20231;-93
2020/12/16 02:10:21;;;;;;;22.07;15.83;;;8.20;99.90;;;;;;4943088;23;20265;-88
2020/12/16 02:12:46;;;;;;;27.17;16.93;;;8.20;99.90;;;;;;4926063;29;20179;-90
2020/12/16 02:15:18;;;;;;;27.77;17.37;;;8.20;99.90;;;;;;4925442;29;20181;-90
2020/12/16 02:17:50;;;;;;;24.60;16.50;;;8.20;99.90;;;;;;4925955;29;20183;-94
2020/12/16 02:20:20;;;;;;;25.23;17.37;;;8.20;99.90;;;;;;4931188;23;20241;-91
2020/12/16 02:23:16;;;;;;;23.47;16.40;;;8.20;99.90;;;;;;4942523;28;20218;-90
2020/12/16 02:25:43;;;;;;;29.57;18.27;;;8.20;99.90;;;;;;4942682;29;20143;-89
2020/12/16 02:28:12;;;;;;;26.73;17.43;;;8.20;99.90;;;;;;4925767;29;20210;-89
2020/12/16 02:30:38;;;;;;;26.23;17.10;;;8.20;99.90;;;;;;4941120;29;20206;-90
2020/12/16 02:33:03;;;;;;;28.67;17.93;;;8.20;99.90;;;;;;4922685;29;20214;-90
2020/12/16 02:35:29;;;;;;;25.73;17.57;;;8.30;99.90;;;;;;4924152;29;20182;-90
2020/12/16 02:37:56;;;;;;;26.27;17.50;;;8.30;99.90;;;;;;4934815;29;20207;-96
2020/12/16 02:40:23;;;;;;;28.37;18.63;;;8.20;99.90;;;;;;4921349;29;20178;-90
2020/12/16 02:42:50;;;;;;;29.63;19.40;;;8.30;99.90;;;;;;4925497;29;20186;-91
2020/12/16 02:45:16;;;;;;;31.23;19.40;;;8.30;99.90;;;;;;4940651;29;20189;-91
2020/12/16 02:47:42;;;;;;;33.07;19.87;;;8.30;99.90;;;;;;4921892;29;20202;-96
2020/12/16 02:50:08;;;;;;;35.03;19.80;;;8.30;99.90;;;;;;4922156;29;20202;-91
2020/12/16 02:52:40;;;;;;;36.63;20.90;;;8.30;99.90;;;;;;4922943;29;20178;-96
2020/12/16 02:55:06;;;;;;;34.97;19.80;;;8.30;99.90;;;;;;4935466;28;20158;-89
2020/12/16 02:57:32;;;;;;;37.27;19.53;;;8.30;99.90;;;;;;4924563;29;20159;-90
2020/12/16 02:59:59;;;;;;;33.37;18.50;;;8.30;99.90;;;;;;4924258;29;20162;-89
2020/12/16 03:03:33;;;;;;;35.33;20.70;;;8.30;99.90;;;;;;4942707;23;20221;-96
2020/12/16 03:06:05;;;;;;;32.53;18.43;;;8.20;99.90;;;;;;4990912;23;20226;-92
2020/12/16 03:08:31;;;;;;;35.43;19.90;;;8.20;99.90;;;;;;4923229;29;20238;-90
2020/12/16 03:10:58;;;;;;;43.27;18.90;;;8.20;99.90;;;;;;4941368;29;20175;-91
2020/12/16 03:13:24;;;;;;;34.37;18.13;;;8.20;99.90;;;;;;4980376;23;20281;-95
2020/12/16 03:15:49;;;;;;;34.27;19.30;;;8.20;99.90;;;;;;4907992;29;20716;-96
2020/12/16 03:18:15;;;;;;;41.60;21.70;;;8.20;99.90;;;;;;4910455;29;20173;-94
2020/12/16 03:20:41;;;;;;;45.30;21.37;;;8.20;99.90;;;;;;4925021;29;20171;-96
2020/12/16 03:23:08;;;;;;;41.10;22.23;;;8.20;99.90;;;;;;4905266;29;20277;-95
2020/12/16 03:25:33;;;;;;;54.57;23.67;;;8.20;99.90;;;;;;4903715;29;20178;-95
2020/12/16 03:28:00;;;;;;;39.63;20.93;;;8.20;99.90;;;;;;4912554;29;20182;-93
2020/12/16 03:30:26;;;;;;;42.10;21.43;;;8.20;99.90;;;;;;4918878;29;20222;-95
2020/12/16 03:32:57;;;;;;;36.57;19.13;;;8.20;99.90;;;;;;4923929;29;20193;-94
2020/12/16 03:35:23;;;;;;;45.30;20.73;;;8.20;99.90;;;;;;4922250;29;20249;-96
2020/12/16 03:37:48;;;;;;;40.17;20.73;;;8.20;99.90;;;;;;4911687;29;20660;-95
2020/12/16 03:40:17;;;;;;;43.43;20.93;;;8.20;99.90;;;;;;4940386;23;20239;-95
2020/12/16 03:43:12;;;;;;;45.23;21.97;;;8.20;99.90;;;;;;4922009;29;20210;-91
2020/12/16 03:45:38;;;;;;;37.30;19.53;;;8.10;99.90;;;;;;4885399;29;20576;-96
2020/12/16 03:48:04;;;;;;;46.07;19.87;;;8.10;99.90;;;;;;4883212;29;20228;-96
2020/12/16 03:50:29;;;;;;;46.63;21.33;;;8.10;99.90;;;;;;4883033;29;20223;-96
2020/12/16 03:53:08;;;;;;;35.53;20.67;;;8.10;99.90;;;;;;4899201;29;20175;-96
2020/12/16 03:55:34;;;;;;;38.07;20.33;;;8.00;99.90;;;;;;4905195;29;20184;-92
2020/12/16 03:58:00;;;;;;;31.17;18.10;;;8.00;99.90;;;;;;4922570;29;20187;-91
2020/12/16 04:00:26;;;;;;;36.80;15.77;;;8.00;99.90;;;;;;4909896;29;20175;-90
2020/12/16 04:02:52;;;;;;;64.80;16.13;;;7.90;99.90;;;;;;4937984;23;20250;-90
2020/12/16 04:05:25;;;;;;;42.10;15.80;;;7.80;99.90;;;;;;4945175;29;20159;-90
2020/12/16 04:07:52;;;;;;;29.77;16.43;;;7.70;99.90;;;;;;4928614;29;20191;-90
2020/12/16 04:10:18;;;;;;;30.50;17.33;;;7.70;99.90;;;;;;4926813;29;20221;-95
2020/12/16 04:13:18;;;;;;;28.90;16.87;;;7.60;99.90;;;;;;4928262;29;20187;-90
2020/12/16 04:15:45;;;;;;;31.40;18.03;;;7.70;99.90;;;;;;4928568;28;20170;-92
2020/12/16 04:18:14;;;;;;;31.83;18.83;;;7.70;99.90;;;;;;4908321;29;20183;-96
2020/12/16 04:20:40;;;;;;;32.30;17.50;;;7.70;99.90;;;;;;4927847;29;20250;-96
2020/12/16 04:23:08;;;;;;;29.33;16.53;;;7.70;99.90;;;;;;4928663;29;20199;-90
2020/12/16 04:25:35;;;;;;;33.30;18.20;;;7.70;99.90;;;;;;4944916;29;20183;-90
2020/12/16 04:28:01;;;;;;;30.17;18.43;;;7.70;99.90;;;;;;4928172;29;20174;-90
2020/12/16 04:30:30;;;;;;;30.87;18.47;;;7.70;99.90;;;;;;4925451;29;20237;-92
2020/12/16 04:32:57;;;;;;;34.13;18.10;;;7.80;99.90;;;;;;4942984;28;20681;-96
2020/12/16 04:35:24;;;;;;;31.23;18.40;;;7.70;99.90;;;;;;4922341;28;20170;-90
2020/12/16 04:37:51;;;;;;;33.10;18.97;;;7.70;99.90;;;;;;4920699;29;20163;-94
2020/12/16 04:40:17;;;;;;;32.60;18.87;;;7.80;99.90;;;;;;4926880;29;20194;-90
2020/12/16 04:43:21;;;;;;;32.00;19.10;;;7.80;99.90;;;;;;4944960;29;20202;-90
2020/12/16 04:45:49;;;;;;;32.57;18.00;;;7.80;99.90;;;;;;4928460;28;20185;-91
2020/12/16 04:48:17;;;;;;;30.33;18.10;;;7.80;99.90;;;;;;4912409;29;20178;-91
2020/12/16 04:50:49;;;;;;;32.37;17.50;;;7.80;99.90;;;;;;4915334;23;20235;-90
2020/12/16 04:53:24;;;;;;;34.13;18.40;;;7.80;99.90;;;;;;4925880;29;20183;-90
2020/12/16 04:55:52;;;;;;;38.47;19.73;;;7.80;99.90;;;;;;4925011;29;20211;-91
2020/12/16 04:58:17;;;;;;;30.63;18.00;;;7.70;99.90;;;;;;4909733;29;20243;-91
2020/12/16 05:00:44;;;;;;;32.43;18.87;;;7.70;99.90;;;;;;4907724;29;20199;-91
2020/12/16 05:06:32;;;;;;;32.27;16.77;;;7.70;99.90;;;;;;4924918;29;20166;-90
2020/12/16 05:09:12;;;;;;;28.80;17.67;;;7.60;99.90;;;;;;4908973;29;20219;-90
2020/12/16 05:14:48;;;;;;;31.17;17.00;;;7.60;99.90;;;;;;4920181;29;20202;-91
2020/12/16 05:17:21;;;;;;;28.80;16.37;;;7.60;99.90;;;;;;4908834;29;20283;-90
2020/12/16 05:19:48;;;;;;;20.50;13.47;;;7.60;99.90;;;;;;4947230;23;20205;-89
2020/12/16 05:25:38;;;;;;;22.20;15.10;;;7.50;99.90;;;;;;4943818;28;20235;-96
2020/12/16 05:28:05;;;;;;;27.57;16.47;;;7.60;99.90;;;;;;4936964;29;20238;-96
2020/12/16 05:30:33;;;;;;;25.77;16.63;;;7.60;99.90;;;;;;4911575;29;20221;-96
2020/12/16 05:33:01;;;;;;;24.67;15.57;;;7.60;99.90;;;;;;4907501;29;20182;-96
2020/12/16 05:35:30;;;;;;;26.60;16.97;;;7.60;99.90;;;;;;4954966;23;20229;-96
2020/12/16 05:38:08;;;;;;;27.07;16.63;;;7.60;99.90;;;;;;4917010;28;20187;-91
2020/12/16 05:40:39;;;;;;;26.17;16.83;;;7.60;99.90;;;;;;4918673;29;20218;-96
2020/12/16 05:46:14;;;;;;;29.83;17.53;;;7.70;99.90;;;;;;4983763;23;20237;-89
2020/12/16 05:48:40;;;;;;;25.37;15.90;;;7.60;99.90;;;;;;4926322;29;20193;-95
2020/12/16 05:51:06;;;;;;;30.30;18.10;;;7.70;99.90;;;;;;4922662;29;20187;-96
2020/12/16 05:53:32;;;;;;;29.37;18.07;;;7.70;99.90;;;;;;4912519;29;20522;-96
2020/12/16 05:56:00;;;;;;;28.93;18.47;;;7.70;99.90;;;;;;4908229;29;20246;-96
2020/12/16 05:58:30;;;;;;;31.50;18.10;;;7.70;99.90;;;;;;4921821;28;20174;-96
2020/12/16 06:00:58;;;;;;;29.47;17.57;;;7.70;99.90;;;;;;4912330;29;20318;-96
2020/12/16 06:03:44;;;;;;;28.00;16.67;;;7.70;99.90;;;;;;4920452;29;20205;-91
2020/12/16 06:09:22;;;;;;;23.33;14.40;;;7.60;99.90;;;;;;4930538;23;20349;-90
2020/12/16 06:11:54;;;;;;;21.50;15.63;;;7.50;99.90;;;;;;4924175;29;20171;-96
2020/12/16 06:14:32;;;;;;;23.83;15.20;;;7.40;99.90;;;;;;4910866;29;20217;-96
2020/12/16 06:17:11;;;;;;;24.90;15.63;;;7.40;99.90;;;;;;4921053;29;20554;-96
2020/12/16 06:20:09;;;;;;;25.97;15.37;;;7.30;99.90;;;;;;4916805;29;20170;-96
2020/12/16 06:22:39;;;;;;;23.70;14.40;;;7.30;99.90;;;;;;4926131;29;20242;-96
2020/12/16 06:25:38;;;;;;;20.27;13.10;;;7.30;99.90;;;;;;4941094;28;20182;-96
2020/12/16 06:28:14;;;;;;;24.93;14.43;;;7.20;99.90;;;;;;4911220;28;20185;-96
2020/12/16 06:31:01;;;;;;;22.43;14.13;;;7.10;99.90;;;;;;4925736;28;20219;-96
2020/12/16 06:33:59;;;;;;;23.47;14.67;;;7.10;99.90;;;;;;4923529;29;20533;-96
2020/12/16 06:36:28;;;;;;;22.90;14.33;;;7.10;99.90;;;;;;4912801;29;20207;-96
2020/12/16 06:38:58;;;;;;;21.83;14.00;;;7.10;99.90;;;;;;4902951;29;20685;-96
2020/12/16 06:41:34;;;;;;;28.40;16.13;;;7.10;99.90;;;;;;4906254;29;20179;-96
2020/12/16 06:44:16;;;;;;;23.43;14.73;;;7.00;99.90;;;;;;4899545;29;20217;-96
2020/12/16 06:46:58;;;;;;;25.37;14.37;;;7.00;99.90;;;;;;4902795;29;20190;-96
2020/12/16 06:49:25;;;;;;;23.27;14.63;;;7.00;99.90;;;;;;4912129;29;20214;-96
2020/12/16 06:56:08;;;;;;;19.93;12.17;;;6.90;99.90;;;;;;4873153;29;20195;-96
2020/12/16 06:58:44;;;;;;;20.73;13.53;;;6.90;99.90;;;;;;4854453;29;20610;-96
2020/12/16 07:01:22;;;;;;;23.60;13.63;;;6.90;99.90;;;;;;4964052;23;20273;-96
2020/12/16 07:04:11;;;;;;;19.20;13.03;;;6.90;99.90;;;;;;4898823;29;20245;-96
2020/12/16 07:06:49;;;;;;;18.83;11.40;;;6.80;99.90;;;;;;4967812;23;20261;-96
2020/12/16 07:09:37;;;;;;;21.20;9.67;;;6.80;99.90;;;;;;4888896;29;20232;-96
2020/12/16 07:12:03;;;;;;;113.20;11.60;;;6.70;99.90;;;;;;4881978;29;20192;-96
2020/12/16 07:14:34;;;;;;;102.03;11.57;;;6.60;99.90;;;;;;4879055;29;20211;-96
2020/12/16 07:17:11;;;;;;;74.17;10.43;;;6.50;99.90;;;;;;4891038;29;20175;-96
2020/12/16 07:19:38;;;;;;;29.17;10.77;;;6.50;99.90;;;;;;4892994;29;20209;-96
2020/12/16 07:22:20;;;;;;;18.30;11.87;;;6.50;99.90;;;;;;4891262;29;20187;-95
2020/12/16 07:24:53;;;;;;;16.53;11.63;;;6.50;99.90;;;;;;4891222;29;20210;-96
2020/12/16 07:27:24;;;;;;;19.43;12.33;;;6.50;99.90;;;;;;4898958;29;20508;-95
2020/12/16 07:29:59;;;;;;;22.13;14.53;;;6.50;99.90;;;;;;4895636;29;20223;-95
2020/12/16 07:32:28;;;;;;;20.77;13.60;;;6.50;99.90;;;;;;4886102;29;20175;-96
2020/12/16 07:34:59;;;;;;;23.43;14.90;;;6.60;99.90;;;;;;4890623;29;20182;-96
2020/12/16 07:37:53;;;;;;;18.57;13.17;;;6.60;99.90;;;;;;4899099;29;20275;-96
2020/12/16 07:40:21;;;;;;;18.33;13.03;;;6.60;99.90;;;;;;4864707;29;20247;-96
2020/12/16 07:42:54;;;;;;;17.87;12.33;;;6.70;99.90;;;;;;4897833;29;20171;-94
2020/12/16 07:45:37;;;;;;;14.23;10.53;;;6.70;99.90;;;;;;4987719;23;20238;-94
2020/12/16 07:48:05;;;;;;;13.20;9.97;;;6.70;99.90;;;;;;4926305;28;20202;-96
2020/12/16 07:50:32;;;;;;;14.87;10.30;;;6.60;99.90;;;;;;4925927;29;20219;-92
2020/12/16 07:53:07;;;;;;;18.47;11.90;;;6.50;99.90;;;;;;4920865;29;20177;-96
2020/12/16 07:59:29;;;;;;;15.33;10.40;;;6.50;99.90;;;;;;4942097;28;20190;-93
2020/12/16 08:02:20;;;;;;;15.40;10.70;;;6.50;99.90;;;;;;4959590;23;20580;-92
2020/12/16 08:05:05;;;;;;;14.60;10.37;;;6.40;99.90;;;;;;4924388;28;20255;-93
2020/12/16 08:07:45;;;;;;;15.13;11.20;;;6.40;99.90;;;;;;4911343;29;20245;-94
2020/12/16 08:10:14;;;;;;;16.00;11.43;;;6.40;99.90;;;;;;4913822;29;20199;-94
2020/12/16 08:12:45;;;;;;;21.43;15.77;;;6.50;99.90;;;;;;4921024;29;20183;-93
2020/12/16 08:18:47;;;;;;;17.83;11.07;;;6.50;99.90;;;;;;4923660;29;20166;-92
2020/12/16 08:21:23;;;;;;;15.57;11.67;;;6.60;99.90;;;;;;4916617;23;20253;-92
2020/12/16 08:23:51;;;;;;;17.47;12.20;;;6.60;99.90;;;;;;4925884;29;20175;-92
2020/12/16 08:29:41;;;;;;;14.67;10.40;;;6.60;99.90;;;;;;4943617;28;20238;-92
2020/12/16 08:32:22;;;;;;;12.77;9.23;;;6.70;99.90;;;;;;4946796;23;20218;-92
2020/12/16 08:38:23;;;;;;;16.50;9.70;;;6.70;99.90;;;;;;4961259;23;20170;-95
2020/12/16 08:40:49;;;;;;;19.23;12.13;;;6.70;99.90;;;;;;4905985;29;20198;-95
2020/12/16 08:43:17;;;;;;;22.03;14.63;;;6.80;99.90;;;;;;4913914;29;20191;-92
2020/12/16 08:46:09;;;;;;;23.70;14.07;;;6.80;99.90;;;;;;4930114;23;20289;-92
2020/12/16 08:48:40;;;;;;;15.40;10.43;;;6.80;99.90;;;;;;4942754;29;20182;-92
2020/12/16 08:51:08;;;;;;;17.20;12.07;;;6.90;99.90;;;;;;4927066;29;20183;-91
2020/12/16 08:53:56;;;;;;;17.80;12.50;;;6.90;99.90;;;;;;4927295;29;20210;-92
2020/12/16 08:57:16;;;;;;;18.53;11.63;;;7.00;99.90;;;;;;4946629;23;20242;-92
2020/12/16 09:03:14;;;;;;;18.87;12.20;;;7.10;99.90;;;;;;4942542;29;20174;-96
2020/12/16 09:06:35;;;;;;;17.83;12.27;;;7.10;99.90;;;;;;4910486;29;20207;-96
2020/12/16 09:09:13;;;;;;;19.23;13.53;;;7.20;99.90;;;;;;4905791;29;20202;-96
2020/12/16 09:11:46;;;;;;;19.50;13.90;;;7.30;99.90;;;;;;4904820;29;20178;-96
2020/12/16 09:14:12;;;;;;;19.00;12.93;;;7.30;99.90;;;;;;4905578;29;20222;-96
2020/12/16 09:16:39;;;;;;;22.53;14.90;;;7.40;99.90;;;;;;4904584;29;20214;-96
2020/12/16 09:19:15;;;;;;;18.17;13.13;;;7.40;99.90;;;;;;4910971;29;20174;-92
2020/12/16 09:21:41;;;;;;;17.53;11.90;;;7.50;99.90;;;;;;4914800;29;20174;-96
2020/12/16 09:24:07;;;;;;;18.70;13.27;;;7.50;99.90;;;;;;4907612;29;20281;-96
2020/12/16 09:26:45;;;;;;;19.87;13.97;;;7.50;99.90;;;;;;4926165;29;20202;-96
2020/12/16 09:29:18;;;;;;;32.77;18.63;;;7.60;99.90;;;;;;4926701;29;20218;-96
2020/12/16 09:31:45;;;;;;;33.23;18.23;;;7.60;99.90;;;;;;4904723;29;20507;-95
2020/12/16 09:34:11;;;;;;;31.50;19.90;;;7.70;99.90;;;;;;4904068;29;20183;-94
2020/12/16 09:36:46;;;;;;;38.17;22.57;;;7.70;99.90;;;;;;4904026;29;20182;-95
2020/12/16 09:39:12;;;;;;;42.50;24.63;;;7.80;99.90;;;;;;4903913;29;20605;-94
2020/12/16 09:41:47;;;;;;;48.07;25.50;;;7.90;99.90;;;;;;4903737;29;20241;-96
2020/12/16 09:44:27;;;;;;;41.57;24.90;;;8.00;99.90;;;;;;4903741;29;20167;-95
2020/12/16 09:47:22;;;;;;;49.57;26.77;;;8.00;99.90;;;;;;4903451;29;20221;-95
2020/12/16 09:49:59;;;;;;;46.97;27.73;;;8.10;99.90;;;;;;4903604;29;20638;-95
2020/12/16 09:52:33;;;;;;;48.83;28.13;;;8.20;99.90;;;;;;4903542;29;20182;-95
2020/12/16 09:55:15;;;;;;;47.17;28.53;;;8.20;99.90;;;;;;4903553;29;20244;-93
2020/12/16 09:57:42;;;;;;;51.90;29.63;;;8.30;99.90;;;;;;4902656;29;20185;-93
2020/12/16 10:00:08;;;;;;;53.17;30.37;;;8.40;99.90;;;;;;4903929;29;20523;-93
2020/12/16 10:02:34;;;;;;;49.93;29.33;;;8.50;99.90;;;;;;4903811;29;20273;-94
2020/12/16 10:05:00;;;;;;;47.53;29.43;;;8.50;99.90;;;;;;4904928;29;20210;-93
2020/12/16 10:07:39;;;;;;;43.80;28.50;;;8.60;99.90;;;;;;4909408;29;20194;-96
2020/12/16 10:10:07;;;;;;;44.67;29.00;;;8.70;99.90;;;;;;4911860;29;20214;-96
2020/12/16 10:12:34;;;;;;;45.60;29.20;;;8.70;99.90;;;;;;4908608;29;20654;-93
2020/12/16 10:15:02;;;;;;;43.17;27.53;;;8.80;99.90;;;;;;4895096;29;20186;-94
2020/12/16 10:17:30;;;;;;;42.23;27.47;;;8.80;99.90;;;;;;4891454;29;20187;-96
2020/12/16 10:19:56;;;;;;;42.10;26.50;;;8.90;99.90;;;;;;4913019;29;20246;-94
2020/12/16 10:22:21;;;;;;;41.87;27.93;;;8.90;99.90;;;;;;4904446;29;20625;-96
2020/12/16 10:24:47;;;;;;;42.17;27.47;;;9.00;99.90;;;;;;4924598;29;20178;-96
2020/12/16 10:27:28;;;;;;;42.17;27.17;;;9.10;99.90;;;;;;4909272;29;20210;-96
2020/12/16 10:29:55;;;;;;;43.47;28.33;;;9.20;99.90;;;;;;4911257;29;20219;-96
2020/12/16 10:32:22;;;;;;;43.30;27.43;;;9.40;99.90;;;;;;4928956;29;20174;-94
2020/12/16 10:34:52;;;;;;;41.43;27.13;;;9.50;99.90;;;;;;4896889;29;20186;-96
2020/12/16 10:37:33;;;;;;;35.77;23.50;;;9.60;99.90;;;;;;4911538;29;20259;-96
2020/12/16 10:39:59;;;;;;;34.07;22.70;;;9.70;99.90;;;;;;4912018;29;20531;-95
2020/12/16 10:42:24;;;;;;;30.13;21.77;;;9.80;99.90;;;;;;4928680;29;20274;-96
2020/12/16 10:44:52;;;;;;;35.17;22.80;;;9.80;99.90;;;;;;4912584;29;20187;-95
2020/12/16 10:47:26;;;;;;;34.20;22.77;;;9.80;99.90;;;;;;4894870;29;20214;-95
2020/12/16 10:49:54;;;;;;;30.53;20.50;;;9.90;99.90;;;;;;4908562;29;20301;-96
2020/12/16 10:52:19;;;;;;;29.47;21.33;;;9.90;99.90;;;;;;4892752;29;20186;-95
2020/12/16 10:54:45;;;;;;;26.17;19.10;;;9.90;99.90;;;;;;4905909;29;20226;-96
2020/12/16 10:57:24;;;;;;;25.63;18.93;;;10.00;99.90;;;;;;4907659;29;20179;-96
2020/12/16 10:59:50;;;;;;;26.27;18.60;;;10.00;99.90;;;;;;4910753;29;20175;-95
2020/12/16 11:02:16;;;;;;;25.63;19.33;;;10.10;99.90;;;;;;4909675;29;20578;-96
2020/12/16 11:04:44;;;;;;;24.50;18.07;;;10.10;99.90;;;;;;4910050;29;20185;-96
2020/12/16 11:07:40;;;;;;;21.63;16.43;;;10.10;99.90;;;;;;4927965;29;20175;-96
2020/12/16 11:10:06;;;;;;;24.37;17.90;;;10.10;99.90;;;;;;4901363;29;20195;-95
2020/12/16 11:12:32;;;;;;;21.43;16.33;;;10.10;99.90;;;;;;4890396;29;20194;-96
2020/12/16 11:14:57;;;;;;;23.83;16.60;;;10.10;99.90;;;;;;4923644;23;20302;-96
2020/12/16 11:17:26;;;;;;;21.53;16.07;;;10.20;99.90;;;;;;4912460;29;20270;-96
2020/12/16 11:19:52;;;;;;;20.47;15.40;;;10.20;99.90;;;;;;4908443;29;20266;-96
2020/12/16 11:22:18;;;;;;;19.63;15.20;;;10.20;99.90;;;;;;4890834;29;20234;-95
2020/12/16 11:24:44;;;;;;;18.80;14.13;;;10.20;99.90;;;;;;4905913;29;20616;-94
2020/12/16 11:27:13;;;;;;;16.97;14.00;;;10.20;99.90;;;;;;4903182;29;20201;-96
2020/12/16 11:29:41;;;;;;;18.87;14.97;;;10.30;99.90;;;;;;4918516;29;20218;-96
2020/12/16 11:32:07;;;;;;;19.07;14.07;;;10.30;99.90;;;;;;4907661;29;20187;-96
2020/12/16 11:34:34;;;;;;;18.00;13.63;;;10.30;99.90;;;;;;4895606;29;20179;-96
2020/12/16 11:37:03;;;;;;;17.87;13.40;;;10.30;99.90;;;;;;4941578;23;20239;-96
2020/12/16 11:39:30;;;;;;;16.35;13.32;;;10.30;99.90;;;;;;4926773;29;20178;-96
2020/12/16 11:41:59;;;;;;;16.03;12.63;;;10.40;99.90;;;;;;4898474;29;20187;-95
2020/12/16 11:44:26;;;;;;;16.23;12.98;;;10.40;99.90;;;;;;4897726;29;20178;-96
2020/12/16 11:50:14;;;;;;;15.10;11.20;;;10.50;99.90;;;;;;4923503;29;20334;-95
2020/12/16 11:52:41;;;;;;;15.07;11.35;;;10.60;99.90;;;;;;4891898;29;20190;-96
2020/12/16 11:55:07;;;;;;;16.05;11.88;;;10.60;99.90;;;;;;4903979;29;20183;-95
2020/12/16 11:57:38;;;;;;;15.37;12.57;;;10.70;99.90;;;;;;4923209;29;20622;-96
2020/12/16 12:00:05;;;;;;;15.70;11.80;;;10.70;99.90;;;;;;4907348;29;20179;-95
2020/12/16 12:02:33;;;;;;;13.70;10.80;;;10.70;99.90;;;;;;4904632;29;20175;-95
2020/12/16 12:05:01;;;;;;;14.30;11.37;;;10.70;99.90;;;;;;4907642;29;20214;-95
2020/12/16 12:07:26;;;;;;;16.03;10.73;;;10.70;99.90;;;;;;4926789;23;20239;-96
2020/12/16 12:09:52;;;;;;;16.87;11.73;;;10.70;99.90;;;;;;4890176;29;20219;-95
2020/12/16 12:12:18;;;;;;;14.57;11.65;;;10.70;99.90;;;;;;4891803;29;20183;-96
2020/12/16 12:14:44;;;;;;;15.38;11.98;;;10.70;99.90;;;;;;4904703;29;20211;-96
2020/12/16 12:17:24;;;;;;;18.10;13.85;;;10.70;99.90;;;;;;4890214;29;20207;-96
2020/12/16 12:19:50;;;;;;;17.88;13.88;;;10.80;99.90;;;;;;4875541;29;20194;-96
2020/12/16 12:22:16;;;;;;;18.50;13.97;;;10.80;99.90;;;;;;4891291;29;20195;-95
2020/12/16 12:24:41;;;;;;;16.95;12.82;;;10.80;99.90;;;;;;4900287;29;20179;-96
2020/12/16 12:27:10;;;;;;;18.85;14.32;;;10.80;99.90;;;;;;4885900;29;20199;-96
2020/12/16 12:29:39;;;;;;;16.55;12.57;;;10.80;99.90;;;;;;4886322;29;20215;-96
2020/12/16 12:32:05;;;;;;;15.32;12.05;;;10.80;99.90;;;;;;4900904;29;20277;-96
2020/12/16 12:34:31;;;;;;;16.50;12.63;;;10.80;99.90;;;;;;4915335;29;20168;-96
2020/12/16 12:37:02;;;;;;;14.17;11.00;;;10.80;99.90;;;;;;4893622;29;20266;-96
2020/12/16 12:39:28;;;;;;;14.35;11.65;;;10.80;99.90;;;;;;4873779;29;20175;-96
2020/12/16 12:41:55;;;;;;;15.43;11.48;;;10.80;99.90;;;;;;4888872;29;20199;-96
2020/12/16 12:44:21;;;;;;;14.10;10.82;;;10.80;99.90;;;;;;4889011;29;20522;-96
2020/12/16 12:46:50;;;;;;;14.23;10.83;;;10.70;99.90;;;;;;4890690;29;20193;-96
2020/12/16 12:49:18;;;;;;;15.17;10.83;;;10.80;99.90;;;;;;4889439;29;20218;-96
2020/12/16 12:51:50;;;;;;;18.13;11.57;;;10.80;99.90;;;;;;4888391;29;20183;-95
2020/12/16 12:54:29;;;;;;;15.07;11.03;;;10.70;99.90;;;;;;4889197;29;20179;-96
2020/12/16 12:56:56;;;;;;;14.33;10.33;;;10.60;99.90;;;;;;4905920;29;20178;-96
2020/12/16 12:59:39;;;;;;;13.30;10.50;;;10.60;99.90;;;;;;4891552;29;20217;-96
2020/12/16 13:02:05;;;;;;;13.30;10.07;;;10.60;99.90;;;;;;4888565;29;20266;-96
2020/12/16 13:04:31;;;;;;;13.93;10.50;;;10.60;99.90;;;;;;4889008;29;20607;-95
2020/12/16 13:06:57;;;;;;;13.60;10.90;;;10.50;99.90;;;;;;4887247;29;20238;-95
2020/12/16 13:09:25;;;;;;;12.40;9.63;;;10.50;99.90;;;;;;4888047;29;20211;-95
2020/12/16 13:11:51;;;;;;;13.00;10.40;;;10.50;99.90;;;;;;4887206;29;20179;-95
2020/12/16 13:14:23;;;;;;;12.27;9.98;;;10.40;99.90;;;;;;4892397;29;20525;-96
2020/12/16 13:16:49;;;;;;;12.07;9.27;;;10.30;99.90;;;;;;4891053;29;20183;-96
2020/12/16 13:19:31;;;;;;;12.37;9.90;;;10.40;99.90;;;;;;4890120;29;20266;-96
2020/12/16 13:21:56;;;;;;;11.73;9.25;;;10.40;99.90;;;;;;4889217;29;20179;-95
2020/12/16 13:24:24;;;;;;;12.45;9.85;;;10.50;99.90;;;;;;4889972;29;20274;-96
2020/12/16 13:26:51;;;;;;;12.38;9.68;;;10.50;99.90;;;;;;4907929;29;20327;-96
2020/12/16 13:29:21;;;;;;;10.10;8.35;;;10.50;99.90;;;;;;4892435;29;20239;-96
2020/12/16 13:31:52;;;;;;;9.55;8.00;;;10.60;99.90;;;;;;4890504;29;20215;-96
2020/12/16 13:34:19;;;;;;;10.07;8.30;;;10.60;99.90;;;;;;4905453;29;20179;-96
2020/12/16 13:36:46;;;;;;;9.60;7.90;;;10.60;99.90;;;;;;4874023;29;20188;-95
2020/12/16 13:39:16;;;;;;;9.15;7.93;;;10.60;99.90;;;;;;4889149;29;20184;-96
2020/12/16 13:41:44;;;;;;;9.83;7.90;;;10.60;99.90;;;;;;4889443;29;20187;-96
2020/12/16 13:44:13;;;;;;;10.70;7.93;;;10.60;99.90;;;;;;4890862;29;20191;-96